Time;durP1;ratioP1;P1;durP2;ratioP2;P2;SDS_P1;SDS_P2;PMS_P1;PMS_P2;Temp;Humidity;BMP_temperature;BMP_pressure;BME280_temperature;BME280_humidity;BME280_pressure;Samples;Min_cycle;Max_cycle;Signal;HPM_P1;HPM_P2
2023/01/15 00:01:33;;;;;;;11.40;3.37;;;;;;;;;;5048718;28;20268;-73
2023/01/15 00:03:59;;;;;;;7.60;1.20;;;;;;;;;;5033761;28;20176;-74
2023/01/15 00:06:25;;;;;;;6.97;2.10;;;;;;;;;;5031809;28;20190;-73
2023/01/15 00:08:51;;;;;;;5.33;1.30;;;;;;;;;;5052463;28;20576;-73
2023/01/15 00:11:17;;;;;;;4.40;1.17;;;;;;;;;;5049627;28;20190;-73
2023/01/15 00:13:42;;;;;;;6.67;2.30;;;;;;;;;;5050031;28;20718;-73
2023/01/15 00:16:12;;;;;;;14.90;2.60;;;;;;;;;;5033471;28;20181;-73
2023/01/15 00:18:37;;;;;;;7.60;2.27;;;;;;;;;;5048171;28;20201;-73
2023/01/15 00:21:03;;;;;;;9.37;1.60;;;;;;;;;;5051452;28;20259;-73
2023/01/15 00:28:57;;;;;;;8.00;2.27;;;;;;;;;;5057770;28;20180;-74
2023/01/15 00:31:23;;;;;;;5.73;1.63;;;;;;;;;;5054038;28;20165;-74
2023/01/15 00:33:48;;;;;;;5.63;2.50;;;;;;;;;;5052774;28;20181;-74
2023/01/15 00:36:13;;;;;;;7.50;2.00;;;;;;;;;;5055916;28;20545;-73
2023/01/15 00:38:38;;;;;;;11.97;2.17;;;;;;;;;;5053706;28;20228;-73
2023/01/15 00:41:04;;;;;;;5.53;1.27;;;;;;;;;;5020609;28;20236;-74
2023/01/15 00:43:29;;;;;;;11.90;1.97;;;;;;;;;;5054876;28;20276;-74
2023/01/15 00:45:54;;;;;;;10.30;1.63;;;;;;;;;;5054613;28;20173;-74
2023/01/15 00:48:19;;;;;;;7.53;1.47;;;;;;;;;;5052498;28;20574;-73
2023/01/15 00:50:45;;;;;;;10.73;1.73;;;;;;;;;;5053485;28;20185;-73
2023/01/15 00:53:10;;;;;;;7.07;1.60;;;;;;;;;;5051162;28;20249;-73
2023/01/15 00:55:35;;;;;;;10.07;1.90;;;;;;;;;;5052618;28;20185;-74
2023/01/15 00:58:01;;;;;;;7.47;1.30;;;;;;;;;;5051985;28;20715;-74
2023/01/15 01:00:26;;;;;;;7.23;1.03;;;;;;;;;;5054242;28;20619;-74
2023/01/15 01:02:51;;;;;;;8.77;1.60;;;;;;;;;;5052746;28;20876;-73
2023/01/15 01:05:16;;;;;;;7.30;2.10;;;;;;;;;;5051338;28;20193;-74
2023/01/15 01:07:41;;;;;;;8.00;1.83;;;;;;;;;;5022712;28;20192;-73
2023/01/15 01:10:08;;;;;;;5.57;1.20;;;;;;;;;;5054952;28;20176;-73
2023/01/15 01:12:33;;;;;;;8.90;2.93;;;;;;;;;;5053456;28;20699;-74
2023/01/15 01:14:58;;;;;;;8.47;2.60;;;;;;;;;;5053855;28;20259;-73
2023/01/15 01:17:23;;;;;;;14.10;2.73;;;;;;;;;;5054758;28;20201;-74
2023/01/15 01:19:48;;;;;;;13.43;1.70;;;;;;;;;;5053650;28;20207;-73
2023/01/15 01:22:14;;;;;;;5.67;1.53;;;;;;;;;;5055044;28;20268;-73
2023/01/15 01:24:39;;;;;;;8.33;1.83;;;;;;;;;;5054443;28;20188;-74
2023/01/15 01:27:04;;;;;;;5.90;1.83;;;;;;;;;;5054111;28;20201;-73
2023/01/15 01:29:29;;;;;;;7.43;1.27;;;;;;;;;;5055203;28;20309;-73
2023/01/15 01:31:54;;;;;;;9.87;1.70;;;;;;;;;;5052813;28;20252;-73
2023/01/15 01:34:20;;;;;;;8.70;1.73;;;;;;;;;;5054755;28;20215;-73
2023/01/15 01:36:45;;;;;;;11.50;1.87;;;;;;;;;;5054557;28;20648;-73
2023/01/15 01:39:14;;;;;;;9.30;1.87;;;;;;;;;;5037243;28;20200;-74
2023/01/15 01:41:40;;;;;;;9.63;1.73;;;;;;;;;;5053375;28;20274;-73
2023/01/15 01:44:24;;;;;;;5.40;1.63;;;;;;;;;;5056592;28;20272;-74
2023/01/15 01:46:49;;;;;;;7.57;1.20;;;;;;;;;;5053638;28;20205;-74
2023/01/15 01:49:14;;;;;;;5.67;1.00;;;;;;;;;;5050876;28;20212;-74
2023/01/15 01:51:44;;;;;;;6.23;1.07;;;;;;;;;;5053653;28;20194;-74
2023/01/15 01:54:11;;;;;;;6.17;1.27;;;;;;;;;;5051523;28;20185;-74
2023/01/15 01:56:36;;;;;;;8.70;1.17;;;;;;;;;;5054000;28;20211;-73
2023/01/15 01:59:03;;;;;;;13.70;4.47;;;;;;;;;;5051993;28;20190;-74
2023/01/15 02:01:29;;;;;;;7.37;1.73;;;;;;;;;;5052342;28;20177;-73
2023/01/15 02:03:54;;;;;;;10.50;1.97;;;;;;;;;;5052074;28;20558;-73
2023/01/15 02:06:21;;;;;;;14.80;2.00;;;;;;;;;;5052544;28;20299;-73
2023/01/15 02:08:46;;;;;;;7.93;1.83;;;;;;;;;;5033671;28;20173;-73
2023/01/15 02:11:14;;;;;;;4.60;1.30;;;;;;;;;;5054952;28;20176;-74
2023/01/15 02:13:44;;;;;;;8.80;1.47;;;;;;;;;;5051548;28;20181;-73
2023/01/15 02:16:13;;;;;;;6.27;1.30;;;;;;;;;;5037027;28;20526;-73
2023/01/15 02:18:42;;;;;;;10.73;2.00;;;;;;;;;;5050468;28;20189;-73
2023/01/15 02:21:07;;;;;;;4.97;1.23;;;;;;;;;;5054900;28;20220;-73
2023/01/15 02:23:44;;;;;;;10.40;1.63;;;;;;;;;;5053159;28;20556;-73
2023/01/15 02:26:38;;;;;;;12.23;1.43;;;;;;;;;;5050008;28;20185;-73
2023/01/15 02:29:08;;;;;;;10.03;1.33;;;;;;;;;;5036402;28;20584;-73
2023/01/15 02:31:35;;;;;;;11.70;2.07;;;;;;;;;;5053255;28;20177;-74
2023/01/15 02:34:15;;;;;;;6.93;2.40;;;;;;;;;;5048512;28;20217;-73
2023/01/15 02:36:43;;;;;;;4.53;1.10;;;;;;;;;;5052476;28;20200;-73
2023/01/15 02:39:10;;;;;;;4.47;1.50;;;;;;;;;;5053560;28;20263;-73
2023/01/15 02:41:46;;;;;;;6.77;1.60;;;;;;;;;;5053076;28;20189;-73
2023/01/15 02:44:13;;;;;;;7.73;1.60;;;;;;;;;;5033663;28;20273;-73
2023/01/15 02:46:39;;;;;;;8.20;2.10;;;;;;;;;;5053449;28;20650;-73
2023/01/15 02:49:06;;;;;;;6.30;1.63;;;;;;;;;;5053333;28;20182;-73
2023/01/15 02:51:35;;;;;;;6.50;1.07;;;;;;;;;;5051896;28;20635;-73
2023/01/15 02:54:02;;;;;;;7.40;1.10;;;;;;;;;;5052768;28;20263;-73
2023/01/15 02:56:29;;;;;;;8.63;3.53;;;;;;;;;;5049568;28;20615;-73
2023/01/15 02:58:56;;;;;;;1.90;0.77;;;;;;;;;;5035000;28;20230;-73
2023/01/15 03:01:25;;;;;;;5.23;1.20;;;;;;;;;;5053062;28;21956;-73
2023/01/15 03:03:50;;;;;;;9.17;3.50;;;;;;;;;;5052590;28;20185;-73
2023/01/15 03:06:18;;;;;;;7.17;2.03;;;;;;;;;;5051315;28;20775;-73
2023/01/15 03:08:43;;;;;;;3.93;1.30;;;;;;;;;;5016764;28;20568;-73
2023/01/15 03:11:10;;;;;;;5.33;0.93;;;;;;;;;;5050985;28;20185;-73
2023/01/15 03:13:35;;;;;;;7.17;1.70;;;;;;;;;;5029451;28;20185;-74
2023/01/15 03:16:43;;;;;;;13.13;1.77;;;;;;;;;;5051803;28;20185;-73
2023/01/15 03:19:19;;;;;;;5.13;1.27;;;;;;;;;;5048935;28;20201;-74
2023/01/15 03:21:48;;;;;;;6.07;1.20;;;;;;;;;;5042641;28;20174;-73
2023/01/15 03:24:16;;;;;;;8.37;1.93;;;;;;;;;;5034366;28;20224;-73
2023/01/15 03:26:42;;;;;;;11.37;1.50;;;;;;;;;;5052922;28;20673;-73
2023/01/15 03:29:08;;;;;;;4.30;1.40;;;;;;;;;;5053149;28;20189;-73
2023/01/15 03:31:34;;;;;;;7.80;1.47;;;;;;;;;;5055384;28;20181;-73
2023/01/15 03:33:59;;;;;;;14.13;1.93;;;;;;;;;;5056851;28;20185;-73
2023/01/15 03:36:24;;;;;;;11.77;1.80;;;;;;;;;;5038994;28;20719;-74
2023/01/15 03:38:50;;;;;;;9.77;1.20;;;;;;;;;;5055654;28;20173;-73
2023/01/15 03:41:33;;;;;;;6.13;1.47;;;;;;;;;;5056781;28;20177;-73
2023/01/15 03:44:10;;;;;;;8.20;1.33;;;;;;;;;;5056342;28;20261;-73
2023/01/15 03:46:35;;;;;;;7.50;1.23;;;;;;;;;;5055533;28;20796;-73
2023/01/15 03:49:18;;;;;;;4.07;1.47;;;;;;;;;;5057394;28;20194;-73
2023/01/15 03:51:50;;;;;;;5.83;1.23;;;;;;;;;;5056974;28;20199;-73
2023/01/15 03:54:22;;;;;;;7.20;1.43;;;;;;;;;;5053788;28;20590;-73
2023/01/15 03:56:57;;;;;;;5.47;1.03;;;;;;;;;;5052157;28;20564;-73
2023/01/15 03:59:25;;;;;;;5.10;1.47;;;;;;;;;;5055999;28;20197;-73
2023/01/15 04:01:52;;;;;;;9.30;1.90;;;;;;;;;;5052625;28;20177;-73
2023/01/15 04:04:17;;;;;;;7.53;1.43;;;;;;;;;;5055147;28;20647;-73
2023/01/15 04:06:42;;;;;;;3.07;1.20;;;;;;;;;;5056283;28;20250;-73
2023/01/15 04:09:09;;;;;;;4.73;2.23;;;;;;;;;;5054724;28;20185;-73
2023/01/15 04:11:35;;;;;;;7.93;1.30;;;;;;;;;;5038301;28;20173;-73
2023/01/15 04:14:00;;;;;;;4.57;1.20;;;;;;;;;;5055821;28;20184;-73
2023/01/15 04:16:27;;;;;;;8.50;1.93;;;;;;;;;;5053788;28;20254;-73
2023/01/15 04:18:52;;;;;;;5.03;1.13;;;;;;;;;;5054099;28;20200;-73
2023/01/15 04:21:17;;;;;;;7.37;1.40;;;;;;;;;;5048779;28;20172;-73
2023/01/15 04:23:43;;;;;;;4.57;1.20;;;;;;;;;;5056245;28;20204;-73
2023/01/15 04:26:08;;;;;;;5.20;1.53;;;;;;;;;;5054586;28;20186;-73
2023/01/15 04:28:33;;;;;;;8.00;1.23;;;;;;;;;;5054168;28;20258;-72
2023/01/15 04:30:59;;;;;;;8.50;2.80;;;;;;;;;;5055809;28;20186;-73
2023/01/15 04:33:24;;;;;;;12.97;2.80;;;;;;;;;;5054216;28;20181;-73
2023/01/15 04:35:49;;;;;;;6.23;1.23;;;;;;;;;;5056301;28;20225;-73
2023/01/15 04:38:16;;;;;;;8.17;1.43;;;;;;;;;;5053117;28;20200;-73
2023/01/15 04:46:09;;;;;;;4.37;0.97;;;;;;;;;;5049856;28;20268;-73
2023/01/15 04:48:34;;;;;;;5.03;1.03;;;;;;;;;;5054355;28;20280;-73
2023/01/15 04:51:03;;;;;;;7.30;1.70;;;;;;;;;;5032068;28;20205;-73
2023/01/15 04:53:28;;;;;;;6.83;1.37;;;;;;;;;;5047061;28;20815;-73
2023/01/15 04:55:58;;;;;;;4.83;0.90;;;;;;;;;;5053718;28;20182;-73
2023/01/15 04:58:23;;;;;;;6.13;1.57;;;;;;;;;;5078123;22;20231;-78
2023/01/15 05:00:48;;;;;;;5.90;1.40;;;;;;;;;;5074286;28;20192;-79
2023/01/15 05:03:14;;;;;;;6.37;1.20;;;;;;;;;;5073558;28;20181;-78
2023/01/15 05:05:39;;;;;;;5.20;1.30;;;;;;;;;;5073312;28;20172;-78
2023/01/15 05:08:04;;;;;;;5.43;1.70;;;;;;;;;;5068152;28;20203;-78
2023/01/15 05:10:29;;;;;;;6.30;1.30;;;;;;;;;;5093393;28;20176;-78
2023/01/15 05:12:54;;;;;;;6.93;2.40;;;;;;;;;;5056544;28;20654;-78
2023/01/15 05:15:20;;;;;;;7.83;2.27;;;;;;;;;;5074132;28;20198;-78
2023/01/15 05:17:45;;;;;;;7.60;1.60;;;;;;;;;;5074491;28;20234;-78
2023/01/15 05:20:10;;;;;;;6.97;1.33;;;;;;;;;;5076149;28;20353;-78
2023/01/15 05:22:35;;;;;;;9.90;2.67;;;;;;;;;;5071869;28;20169;-78
2023/01/15 05:25:01;;;;;;;13.03;2.70;;;;;;;;;;5063849;28;20188;-78
2023/01/15 05:27:26;;;;;;;6.57;1.00;;;;;;;;;;5074818;28;20232;-78
2023/01/15 05:29:51;;;;;;;5.60;1.23;;;;;;;;;;5078025;28;20173;-78
2023/01/15 05:32:16;;;;;;;11.37;1.63;;;;;;;;;;5079336;28;20232;-79
2023/01/15 05:34:41;;;;;;;4.60;1.80;;;;;;;;;;5055493;28;20567;-78
2023/01/15 05:37:07;;;;;;;8.50;1.70;;;;;;;;;;5073655;28;20193;-79
2023/01/15 05:39:32;;;;;;;11.10;1.70;;;;;;;;;;5075669;28;20199;-79
2023/01/15 05:41:57;;;;;;;7.57;1.27;;;;;;;;;;5057869;28;20192;-78
2023/01/15 05:44:25;;;;;;;5.30;1.37;;;;;;;;;;5092449;28;20176;-78
2023/01/15 05:46:51;;;;;;;8.50;1.83;;;;;;;;;;5071039;28;20180;-79
2023/01/15 05:49:17;;;;;;;6.77;2.40;;;;;;;;;;5085540;28;20271;-79
2023/01/15 05:51:43;;;;;;;5.83;1.20;;;;;;;;;;5082081;28;20638;-78
2023/01/15 05:54:10;;;;;;;6.63;1.23;;;;;;;;;;5084419;28;20191;-78
2023/01/15 05:56:36;;;;;;;9.43;1.47;;;;;;;;;;5085046;28;20278;-77
2023/01/15 05:59:01;;;;;;;4.10;1.20;;;;;;;;;;5086062;28;20219;-78
2023/01/15 06:01:26;;;;;;;8.70;1.20;;;;;;;;;;5073012;28;20182;-78
2023/01/15 06:03:53;;;;;;;4.33;0.97;;;;;;;;;;5072388;28;20176;-78
2023/01/15 06:06:19;;;;;;;10.40;1.30;;;;;;;;;;5090219;28;20172;-78
2023/01/15 06:08:44;;;;;;;13.07;2.30;;;;;;;;;;5088114;28;20587;-78
2023/01/15 06:11:10;;;;;;;8.50;2.00;;;;;;;;;;5095313;28;20188;-78
2023/01/15 06:13:36;;;;;;;8.40;1.60;;;;;;;;;;5093037;28;20184;-78
2023/01/15 06:16:01;;;;;;;3.87;0.80;;;;;;;;;;5074839;28;20233;-78
2023/01/15 06:18:26;;;;;;;5.53;1.63;;;;;;;;;;5093703;28;20258;-77
2023/01/15 06:20:51;;;;;;;8.73;1.53;;;;;;;;;;5089669;28;20376;-78
2023/01/15 06:23:17;;;;;;;6.70;1.20;;;;;;;;;;5064735;28;20173;-78
2023/01/15 06:25:43;;;;;;;11.73;1.10;;;;;;;;;;5092070;28;20176;-78
2023/01/15 06:28:08;;;;;;;5.37;2.00;;;;;;;;;;5087876;28;20283;-78
2023/01/15 06:30:33;;;;;;;8.93;1.23;;;;;;;;;;5089833;28;20187;-78
2023/01/15 06:32:59;;;;;;;3.10;1.00;;;;;;;;;;5091065;28;20168;-78
2023/01/15 06:35:24;;;;;;;4.73;1.10;;;;;;;;;;5088278;28;20675;-78
2023/01/15 06:37:49;;;;;;;9.53;1.20;;;;;;;;;;5078471;28;20211;-78
2023/01/15 06:40:15;;;;;;;6.17;1.00;;;;;;;;;;5088030;28;20275;-78
2023/01/15 06:48:08;;;;;;;9.13;2.60;;;;;;;;;;5083190;28;20249;-78
2023/01/15 06:50:33;;;;;;;7.87;1.10;;;;;;;;;;5072245;28;20180;-78
2023/01/15 06:52:58;;;;;;;6.97;1.53;;;;;;;;;;5085839;28;20172;-78
2023/01/15 06:55:24;;;;;;;2.53;1.00;;;;;;;;;;5068518;28;20180;-78
2023/01/15 06:57:49;;;;;;;4.87;1.00;;;;;;;;;;5073192;28;20234;-79
2023/01/15 07:00:14;;;;;;;8.07;1.83;;;;;;;;;;5066794;28;20208;-78
2023/01/15 07:02:40;;;;;;;5.43;1.10;;;;;;;;;;5085310;28;20176;-79
2023/01/15 07:05:06;;;;;;;8.60;0.80;;;;;;;;;;5074682;28;20180;-78
2023/01/15 07:07:31;;;;;;;6.43;1.47;;;;;;;;;;5086183;28;20673;-78
2023/01/15 07:09:56;;;;;;;4.13;1.60;;;;;;;;;;5093869;28;20263;-78
2023/01/15 07:12:21;;;;;;;13.80;1.63;;;;;;;;;;5094114;28;20548;-78
2023/01/15 07:14:47;;;;;;;9.57;2.13;;;;;;;;;;5095326;28;20177;-78
2023/01/15 07:17:12;;;;;;;10.07;2.30;;;;;;;;;;5076838;28;20253;-79
2023/01/15 07:19:37;;;;;;;9.40;1.37;;;;;;;;;;5067863;28;20657;-78
2023/01/15 07:22:03;;;;;;;7.87;2.10;;;;;;;;;;5069415;28;20169;-79
2023/01/15 07:24:29;;;;;;;6.93;1.10;;;;;;;;;;5093053;28;20168;-79
2023/01/15 07:26:54;;;;;;;4.17;0.80;;;;;;;;;;5084226;28;20201;-79
2023/01/15 07:29:19;;;;;;;6.57;1.33;;;;;;;;;;5072520;28;20671;-76
2023/01/15 07:31:44;;;;;;;12.30;1.37;;;;;;;;;;5058655;28;20199;-77
2023/01/15 07:34:09;;;;;;;7.90;1.47;;;;;;;;;;5059082;28;20189;-77
2023/01/15 07:36:35;;;;;;;9.23;2.00;;;;;;;;;;5061968;28;20608;-79
2023/01/15 07:39:02;;;;;;;6.50;0.70;;;;;;;;;;5077029;28;20199;-77
2023/01/15 07:49:44;;;;;;;5.80;0.87;;;;;;;;;;5096589;28;20202;-78
2023/01/15 07:52:10;;;;;;;5.87;0.93;;;;;;;;;;5097342;28;20196;-78
2023/01/15 07:54:35;;;;;;;3.67;1.17;;;;;;;;;;5079551;28;20183;-78
2023/01/15 07:57:00;;;;;;;7.80;1.10;;;;;;;;;;5096663;28;20299;-78
2023/01/15 07:59:26;;;;;;;8.30;1.63;;;;;;;;;;5095553;28;20218;-78
2023/01/15 08:01:51;;;;;;;7.67;1.13;;;;;;;;;;5086373;28;20177;-78
2023/01/15 08:04:16;;;;;;;5.27;0.90;;;;;;;;;;5093572;28;20168;-79
2023/01/15 08:06:41;;;;;;;4.80;1.03;;;;;;;;;;5090484;28;20203;-78
2023/01/15 08:09:06;;;;;;;4.63;0.97;;;;;;;;;;5091888;28;20591;-78
2023/01/15 08:17:00;;;;;;;5.87;1.23;;;;;;;;;;5085059;28;20211;-77
2023/01/15 08:19:25;;;;;;;5.33;1.13;;;;;;;;;;5052870;28;20201;-76
2023/01/15 08:21:51;;;;;;;7.63;1.33;;;;;;;;;;5073219;28;20175;-76
2023/01/15 08:24:16;;;;;;;7.27;1.67;;;;;;;;;;5073767;28;20679;-77
2023/01/15 08:26:41;;;;;;;7.23;1.30;;;;;;;;;;5075886;28;20177;-80
2023/01/15 08:29:07;;;;;;;4.83;1.23;;;;;;;;;;5078207;28;20522;-77
2023/01/15 08:31:32;;;;;;;4.53;1.07;;;;;;;;;;5082924;28;20184;-77
2023/01/15 08:33:57;;;;;;;7.03;1.63;;;;;;;;;;5078239;28;20177;-79
2023/01/15 08:36:22;;;;;;;8.93;1.20;;;;;;;;;;5056973;28;20642;-79
2023/01/15 08:38:49;;;;;;;9.53;1.53;;;;;;;;;;5073058;28;20196;-77
2023/01/15 08:41:14;;;;;;;8.37;1.27;;;;;;;;;;5072850;28;20396;-78
2023/01/15 08:43:40;;;;;;;12.87;1.80;;;;;;;;;;5075361;28;20681;-77
2023/01/15 08:46:05;;;;;;;9.97;1.27;;;;;;;;;;5074327;28;20188;-77
2023/01/15 08:48:31;;;;;;;5.77;1.87;;;;;;;;;;5063376;28;20587;-77
2023/01/15 08:50:56;;;;;;;3.77;1.33;;;;;;;;;;5075267;28;20191;-77
2023/01/15 08:53:23;;;;;;;6.93;1.00;;;;;;;;;;5057968;28;20263;-78
2023/01/15 08:55:48;;;;;;;6.60;1.60;;;;;;;;;;5057807;28;20680;-79
2023/01/15 08:58:14;;;;;;;8.33;1.83;;;;;;;;;;5073229;28;20204;-79
2023/01/15 09:00:39;;;;;;;2.87;1.10;;;;;;;;;;5071255;28;20205;-78
2023/01/15 09:03:05;;;;;;;10.87;1.30;;;;;;;;;;5077822;28;20599;-78
2023/01/15 09:05:30;;;;;;;7.07;1.63;;;;;;;;;;5073495;28;20703;-78
2023/01/15 09:07:55;;;;;;;8.47;1.77;;;;;;;;;;5078320;28;21126;-79
2023/01/15 09:10:21;;;;;;;13.43;1.77;;;;;;;;;;5057305;28;20172;-78
2023/01/15 09:12:46;;;;;;;7.40;2.10;;;;;;;;;;5062740;28;20289;-78
2023/01/15 09:15:11;;;;;;;4.47;1.13;;;;;;;;;;5080521;28;20184;-79
2023/01/15 09:17:39;;;;;;;4.97;1.20;;;;;;;;;;5078406;28;20246;-79
2023/01/15 09:20:05;;;;;;;4.07;1.07;;;;;;;;;;5077196;28;20284;-79
2023/01/15 09:22:31;;;;;;;4.03;1.30;;;;;;;;;;5074567;28;20201;-79
2023/01/15 09:24:56;;;;;;;8.43;1.63;;;;;;;;;;5081289;28;20180;-79
2023/01/15 09:27:22;;;;;;;4.93;1.90;;;;;;;;;;5071279;28;20275;-79
2023/01/15 09:29:47;;;;;;;4.50;1.20;;;;;;;;;;5071399;28;20263;-79
2023/01/15 09:32:13;;;;;;;5.47;1.30;;;;;;;;;;5071202;28;20217;-79
2023/01/15 09:34:38;;;;;;;7.30;1.37;;;;;;;;;;5072899;28;20177;-79
2023/01/15 09:37:03;;;;;;;3.17;1.00;;;;;;;;;;5071805;28;20204;-79
2023/01/15 09:39:28;;;;;;;5.37;1.83;;;;;;;;;;5077815;28;20294;-79
2023/01/15 09:42:14;;;;;;;13.33;1.43;;;;;;;;;;5065830;28;20181;-79
2023/01/15 09:44:48;;;;;;;3.50;1.10;;;;;;;;;;5058743;28;20176;-79
2023/01/15 09:47:16;;;;;;;7.80;1.57;;;;;;;;;;5071639;28;20235;-78
2023/01/15 09:49:42;;;;;;;7.57;2.20;;;;;;;;;;5076248;28;20706;-79
2023/01/15 09:52:07;;;;;;;7.50;1.33;;;;;;;;;;5070924;28;20672;-76
2023/01/15 09:54:35;;;;;;;7.17;1.73;;;;;;;;;;5073684;28;20184;-77
2023/01/15 09:57:01;;;;;;;8.90;1.77;;;;;;;;;;5074012;28;20282;-77
2023/01/15 09:59:37;;;;;;;6.23;1.23;;;;;;;;;;5075056;28;20281;-79
2023/01/15 10:02:16;;;;;;;12.77;2.57;;;;;;;;;;5076544;28;20272;-76
2023/01/15 10:04:43;;;;;;;7.77;1.43;;;;;;;;;;5069261;28;20182;-80
2023/01/15 10:07:09;;;;;;;5.63;1.30;;;;;;;;;;5086845;28;20610;-80
2023/01/15 10:09:36;;;;;;;4.37;1.67;;;;;;;;;;5087181;28;20187;-77
2023/01/15 10:12:34;;;;;;;8.87;1.70;;;;;;;;;;5074993;28;20177;-77
2023/01/15 10:15:05;;;;;;;4.93;1.53;;;;;;;;;;5083420;28;20586;-79
2023/01/15 10:17:41;;;;;;;9.23;1.50;;;;;;;;;;5074209;28;20565;-78
2023/01/15 10:20:25;;;;;;;6.33;1.47;;;;;;;;;;5055376;28;20199;-78
2023/01/15 10:23:03;;;;;;;4.63;1.40;;;;;;;;;;5077003;28;20164;-79
2023/01/15 10:25:34;;;;;;;12.93;1.27;;;;;;;;;;5054270;28;20218;-79
2023/01/15 10:28:03;;;;;;;6.40;1.47;;;;;;;;;;5084081;28;20258;-79
2023/01/15 10:30:36;;;;;;;6.33;1.60;;;;;;;;;;5086172;28;20264;-79
2023/01/15 10:33:05;;;;;;;7.30;1.67;;;;;;;;;;5077670;28;20195;-79
2023/01/15 10:35:36;;;;;;;7.10;1.13;;;;;;;;;;5076459;28;20662;-80
2023/01/15 10:38:04;;;;;;;9.30;1.83;;;;;;;;;;5069129;28;20215;-77
2023/01/15 10:40:30;;;;;;;5.07;1.60;;;;;;;;;;5076634;28;20677;-79
2023/01/15 10:43:05;;;;;;;7.33;1.70;;;;;;;;;;5076793;28;20270;-79
2023/01/15 10:45:37;;;;;;;9.10;1.37;;;;;;;;;;5077137;28;20222;-80
2023/01/15 10:48:11;;;;;;;4.60;0.90;;;;;;;;;;5059144;28;20287;-79
2023/01/15 10:50:37;;;;;;;3.90;1.23;;;;;;;;;;5076335;28;20242;-79
2023/01/15 10:53:15;;;;;;;4.30;1.17;;;;;;;;;;5077422;28;20186;-77
2023/01/15 10:55:42;;;;;;;4.47;1.63;;;;;;;;;;5078154;28;20220;-79
2023/01/15 10:58:12;;;;;;;6.63;1.77;;;;;;;;;;5092614;22;20364;-74
2023/01/15 11:00:38;;;;;;;10.37;1.80;;;;;;;;;;5078100;28;20672;-74
2023/01/15 11:03:07;;;;;;;7.70;1.87;;;;;;;;;;5094936;28;20277;-74
2023/01/15 11:05:33;;;;;;;14.53;1.87;;;;;;;;;;5097145;28;20328;-74
2023/01/15 11:07:58;;;;;;;12.57;1.63;;;;;;;;;;5095584;28;20211;-74
2023/01/15 11:10:24;;;;;;;4.77;1.67;;;;;;;;;;5095003;28;20192;-74
2023/01/15 11:21:10;;;;;;;10.60;1.40;;;;;;;;;;5094569;28;20207;-74
2023/01/15 11:23:35;;;;;;;5.73;1.50;;;;;;;;;;5093606;28;20188;-75
2023/01/15 11:26:02;;;;;;;11.67;1.80;;;;;;;;;;5094601;28;20660;-73
2023/01/15 11:28:39;;;;;;;5.33;1.10;;;;;;;;;;5095145;28;20230;-73
2023/01/15 11:31:04;;;;;;;6.37;1.37;;;;;;;;;;5095128;28;20182;-74
2023/01/15 11:33:30;;;;;;;6.13;1.07;;;;;;;;;;5098046;28;20184;-73
2023/01/15 11:35:57;;;;;;;6.13;1.00;;;;;;;;;;5095113;28;20181;-73
2023/01/15 11:38:26;;;;;;;4.13;1.67;;;;;;;;;;5092418;28;20575;-73
2023/01/15 11:40:56;;;;;;;10.87;1.83;;;;;;;;;;5096807;28;20282;-73
2023/01/15 11:52:05;;;;;;;10.30;1.17;;;;;;;;;;5095147;28;20254;-74
2023/01/15 11:54:31;;;;;;;6.50;2.23;;;;;;;;;;5094971;28;20184;-73
2023/01/15 11:56:57;;;;;;;7.73;1.70;;;;;;;;;;5093435;28;20204;-73
2023/01/15 11:59:22;;;;;;;6.40;1.03;;;;;;;;;;5092114;28;20301;-74
2023/01/15 12:01:53;;;;;;;5.70;1.07;;;;;;;;;;5096114;28;20187;-75
2023/01/15 12:04:28;;;;;;;11.27;1.20;;;;;;;;;;5095234;28;20249;-75
2023/01/15 12:06:54;;;;;;;9.33;1.30;;;;;;;;;;5077907;28;20604;-73
2023/01/15 12:09:22;;;;;;;7.63;1.10;;;;;;;;;;5096002;28;20184;-75
2023/01/15 12:11:57;;;;;;;10.00;2.73;;;;;;;;;;5091140;28;20186;-75
2023/01/15 12:14:43;;;;;;;6.43;1.80;;;;;;;;;;5091406;28;20188;-73
2023/01/15 12:17:08;;;;;;;7.33;1.27;;;;;;;;;;5081336;28;20336;-72
2023/01/15 12:19:42;;;;;;;5.63;1.23;;;;;;;;;;5095535;28;20634;-73
2023/01/15 12:22:07;;;;;;;9.87;1.40;;;;;;;;;;5094501;28;20172;-73
2023/01/15 12:24:40;;;;;;;5.83;1.50;;;;;;;;;;5094467;28;20578;-73
2023/01/15 12:27:05;;;;;;;6.53;1.50;;;;;;;;;;5092479;28;20165;-74
2023/01/15 12:29:35;;;;;;;4.20;1.00;;;;;;;;;;5093287;28;20172;-74
2023/01/15 12:32:06;;;;;;;4.17;1.70;;;;;;;;;;5072606;28;20610;-74
2023/01/15 12:34:50;;;;;;;5.07;1.00;;;;;;;;;;5093635;28;20180;-74
2023/01/15 12:37:23;;;;;;;9.60;2.27;;;;;;;;;;5093439;28;20203;-73
2023/01/15 12:39:55;;;;;;;11.53;1.43;;;;;;;;;;5095237;28;20215;-73
2023/01/15 12:45:32;;;;;;;9.13;1.97;;;;;;;;;;5094864;28;20228;-74
2023/01/15 12:48:03;;;;;;;6.33;1.20;;;;;;;;;;5095545;28;20269;-73
2023/01/15 12:50:47;;;;;;;8.87;1.93;;;;;;;;;;5095017;28;20167;-74
2023/01/15 12:53:24;;;;;;;5.83;1.60;;;;;;;;;;5093951;28;20184;-74
2023/01/15 12:55:52;;;;;;;12.80;2.53;;;;;;;;;;5095585;28;20176;-73
2023/01/15 12:58:32;;;;;;;4.27;1.57;;;;;;;;;;5093840;28;20324;-74
2023/01/15 13:01:24;;;;;;;8.90;1.50;;;;;;;;;;5092236;28;20199;-74
2023/01/15 13:04:01;;;;;;;8.73;2.10;;;;;;;;;;5096034;28;20180;-74
2023/01/15 13:06:27;;;;;;;3.73;1.33;;;;;;;;;;5095350;28;20263;-74
2023/01/15 13:09:00;;;;;;;7.93;3.07;;;;;;;;;;5093183;28;20196;-73
2023/01/15 13:11:25;;;;;;;4.53;1.17;;;;;;;;;;5097500;28;20278;-74
2023/01/15 13:13:57;;;;;;;9.30;1.83;;;;;;;;;;5105780;28;20684;-74
2023/01/15 13:16:43;;;;;;;6.43;1.57;;;;;;;;;;5102005;28;20184;-73
2023/01/15 13:19:27;;;;;;;11.83;2.43;;;;;;;;;;5102298;28;20210;-74
2023/01/15 13:21:54;;;;;;;8.83;2.00;;;;;;;;;;5093208;28;20917;-73
2023/01/15 13:24:45;;;;;;;7.50;1.70;;;;;;;;;;5093910;28;20185;-74
2023/01/15 13:27:20;;;;;;;6.27;2.03;;;;;;;;;;5074146;28;20651;-74
2023/01/15 13:30:17;;;;;;;5.90;1.43;;;;;;;;;;5090183;28;20184;-74
2023/01/15 13:32:50;;;;;;;5.90;1.40;;;;;;;;;;5053750;28;20196;-74
2023/01/15 13:35:26;;;;;;;4.63;1.77;;;;;;;;;;5094802;28;20182;-74
2023/01/15 13:37:53;;;;;;;10.20;2.03;;;;;;;;;;5093540;28;20564;-74
2023/01/15 13:40:18;;;;;;;8.73;2.93;;;;;;;;;;5093781;28;20199;-74
2023/01/15 13:42:48;;;;;;;4.23;1.97;;;;;;;;;;5090838;28;20181;-74
2023/01/15 13:45:13;;;;;;;7.37;2.53;;;;;;;;;;5092755;28;20258;-74
2023/01/15 13:47:42;;;;;;;8.63;2.10;;;;;;;;;;5091501;28;20283;-74
2023/01/15 13:50:15;;;;;;;7.50;1.90;;;;;;;;;;5075744;28;20172;-74
2023/01/15 13:52:41;;;;;;;6.57;1.90;;;;;;;;;;5076980;28;20191;-73
2023/01/15 13:55:09;;;;;;;12.67;3.67;;;;;;;;;;5095260;28;20176;-74
2023/01/15 13:57:35;;;;;;;6.33;1.57;;;;;;;;;;5092833;28;20200;-74
2023/01/15 14:00:03;;;;;;;3.80;1.30;;;;;;;;;;5093950;28;20199;-74
2023/01/15 14:02:29;;;;;;;7.83;1.27;;;;;;;;;;5079279;28;20172;-73
2023/01/15 14:04:55;;;;;;;7.50;1.53;;;;;;;;;;5094575;28;20546;-74
2023/01/15 14:07:30;;;;;;;5.70;1.67;;;;;;;;;;5093213;28;20203;-73
2023/01/15 14:10:05;;;;;;;4.40;1.80;;;;;;;;;;5091222;28;20178;-74
2023/01/15 14:12:40;;;;;;;7.93;1.53;;;;;;;;;;5090561;28;20175;-73
2023/01/15 14:15:17;;;;;;;5.07;1.30;;;;;;;;;;5096357;28;20182;-74
2023/01/15 14:17:55;;;;;;;7.23;1.50;;;;;;;;;;5095253;28;20211;-74
2023/01/15 14:20:39;;;;;;;7.03;1.40;;;;;;;;;;5092155;28;20204;-74
2023/01/15 14:23:10;;;;;;;7.70;1.10;;;;;;;;;;5091750;28;20642;-74
2023/01/15 14:25:43;;;;;;;12.07;1.60;;;;;;;;;;5090408;28;20222;-74
2023/01/15 14:28:23;;;;;;;6.00;1.77;;;;;;;;;;5092244;28;20235;-74
2023/01/15 14:31:00;;;;;;;7.37;1.83;;;;;;;;;;5093657;28;22258;-73
2023/01/15 14:33:49;;;;;;;7.50;1.83;;;;;;;;;;5078980;28;20180;-74
2023/01/15 14:36:19;;;;;;;4.43;1.70;;;;;;;;;;5053067;28;20796;-74
2023/01/15 14:38:47;;;;;;;5.97;1.43;;;;;;;;;;5073423;28;20199;-74
2023/01/15 14:41:12;;;;;;;8.33;2.87;;;;;;;;;;5090842;28;20239;-74
2023/01/15 14:43:40;;;;;;;7.90;2.17;;;;;;;;;;5091985;28;20252;-73
2023/01/15 14:46:14;;;;;;;6.60;1.50;;;;;;;;;;5092767;28;20186;-74
2023/01/15 14:48:39;;;;;;;6.47;1.80;;;;;;;;;;5093645;28;20196;-74
2023/01/15 14:51:07;;;;;;;7.83;1.50;;;;;;;;;;5076654;28;20204;-74
2023/01/15 14:53:37;;;;;;;5.07;1.60;;;;;;;;;;5090912;28;20198;-74
2023/01/15 14:56:05;;;;;;;9.77;1.43;;;;;;;;;;5090890;28;20668;-74
2023/01/15 14:58:30;;;;;;;6.87;1.70;;;;;;;;;;5092747;28;20283;-74
2023/01/15 15:00:58;;;;;;;7.60;1.90;;;;;;;;;;5091562;28;20204;-74
2023/01/15 15:03:30;;;;;;;11.77;4.10;;;;;;;;;;5096184;28;20195;-74
2023/01/15 15:05:56;;;;;;;9.43;2.17;;;;;;;;;;5092046;28;20190;-73
2023/01/15 15:08:23;;;;;;;9.00;1.80;;;;;;;;;;5088157;28;20189;-74
2023/01/15 15:10:52;;;;;;;11.00;2.47;;;;;;;;;;5093257;28;20184;-74
2023/01/15 15:13:28;;;;;;;6.30;1.77;;;;;;;;;;5091804;28;20180;-73
2023/01/15 15:15:53;;;;;;;11.80;1.97;;;;;;;;;;5092464;28;20191;-74
2023/01/15 15:18:24;;;;;;;6.47;1.80;;;;;;;;;;5093972;28;20203;-74
2023/01/15 15:20:52;;;;;;;9.03;1.70;;;;;;;;;;5091556;28;20226;-74
2023/01/15 15:23:17;;;;;;;8.93;1.90;;;;;;;;;;5091586;28;20713;-73
2023/01/15 15:25:47;;;;;;;12.33;2.60;;;;;;;;;;5093207;28;20176;-74
2023/01/15 15:28:13;;;;;;;6.50;1.90;;;;;;;;;;5095147;28;20215;-74
2023/01/15 15:30:43;;;;;;;7.50;1.73;;;;;;;;;;5092116;28;20183;-74
2023/01/15 15:33:11;;;;;;;6.87;1.77;;;;;;;;;;5100534;28;20625;-74
2023/01/15 15:35:39;;;;;;;9.77;2.23;;;;;;;;;;5094068;28;20686;-73
2023/01/15 15:38:04;;;;;;;3.87;1.00;;;;;;;;;;5094693;28;20684;-73